createdAt,value
2019-02-25T00:02:30.149Z,0.90
2019-02-25T00:05:00.690Z,0.90
2019-02-25T00:07:31.318Z,0.90
2019-02-25T00:10:01.930Z,0.80
2019-02-25T00:12:32.745Z,0.80
2019-02-25T00:15:03.370Z,0.70
2019-02-25T00:17:35.989Z,0.70
2019-02-25T00:20:09.497Z,0.60
2019-02-25T00:22:40.137Z,0.50
2019-02-25T00:25:10.878Z,0.60
2019-02-25T00:27:41.592Z,0.60
2019-02-25T00:30:12.285Z,0.50
2019-02-25T00:32:42.912Z,0.40
2019-02-25T00:35:14.505Z,0.40
2019-02-25T00:37:45.047Z,0.50
2019-02-25T00:40:16.750Z,0.50
2019-02-25T00:42:47.346Z,0.20
2019-02-25T00:45:17.990Z,0.30
2019-02-25T00:47:48.593Z,0.30
2019-02-25T00:50:20.366Z,0.30
2019-02-25T00:52:51.018Z,0.40
2019-02-25T00:55:21.707Z,0.30
2019-02-25T00:57:52.309Z,0.20
2019-02-25T01:00:22.861Z,0.20
2019-02-25T01:02:53.386Z,0.30
2019-02-25T01:05:24.302Z,0.30
2019-02-25T01:07:54.906Z,0.40
2019-02-25T01:10:25.600Z,0.30
2019-02-25T01:12:56.137Z,0.20
2019-02-25T01:15:26.761Z,0.20
2019-02-25T01:17:57.297Z,0.10
2019-02-25T01:20:27.926Z,0.10
2019-02-25T01:22:58.630Z,0.00
2019-02-25T01:25:29.253Z,0.00
2019-02-25T01:27:59.861Z,-0.10
2019-02-25T01:30:30.409Z,-0.10
2019-02-25T01:33:01.027Z,-0.10
2019-02-25T01:35:31.653Z,-0.10
2019-02-25T01:38:02.262Z,-0.10
2019-02-25T01:40:32.817Z,0.00
2019-02-25T01:43:03.501Z,0.00
2019-02-25T01:45:34.116Z,-0.10
2019-02-25T01:48:04.733Z,-0.10
2019-02-25T01:50:35.381Z,-0.10
2019-02-25T01:53:06.994Z,-0.20
2019-02-25T01:55:37.710Z,-0.10
2019-02-25T01:58:08.393Z,-0.10
2019-02-25T02:00:38.961Z,-0.10
2019-02-25T02:03:09.501Z,-0.10
2019-02-25T02:05:40.063Z,-0.10
2019-02-25T02:08:10.670Z,-0.20
2019-02-25T02:10:41.232Z,-0.20
2019-02-25T02:13:14.455Z,-0.20
2019-02-25T02:15:44.109Z,-0.30
2019-02-25T02:18:15.640Z,-0.20
2019-02-25T02:20:46.350Z,-0.20
2019-02-25T02:23:18.049Z,-0.10
2019-02-25T02:25:48.609Z,-0.20
2019-02-25T02:28:19.317Z,-0.30
2019-02-25T02:30:49.953Z,-0.30
2019-02-25T02:33:20.574Z,-0.40
2019-02-25T02:35:51.199Z,-0.40
2019-02-25T02:38:21.822Z,-0.50
2019-02-25T02:40:52.445Z,-0.60
2019-02-25T02:43:22.989Z,-0.50
2019-02-25T02:46:08.519Z,-0.60
2019-02-25T02:48:43.275Z,-0.70
2019-02-25T02:51:13.910Z,-0.80
2019-02-25T02:53:44.527Z,-0.80
2019-02-25T02:56:15.281Z,-0.80
2019-02-25T02:58:45.929Z,-0.70
2019-02-25T03:01:16.643Z,-0.60
2019-02-25T03:03:47.333Z,-0.60
2019-02-25T03:06:18.024Z,-0.60
2019-02-25T03:08:48.558Z,-0.60
2019-02-25T03:11:19.205Z,-0.60
2019-02-25T03:13:49.767Z,-0.60
2019-02-25T03:16:20.394Z,-0.70
2019-02-25T03:18:51.006Z,-0.70
2019-02-25T03:21:21.633Z,-0.70
2019-02-25T03:23:52.172Z,-0.90
2019-02-25T03:26:22.786Z,-0.90
2019-02-25T03:28:53.463Z,-0.90
2019-02-25T03:31:24.029Z,-0.90
2019-02-25T03:33:54.626Z,-0.90
2019-02-25T03:36:25.245Z,-0.90
2019-02-25T03:38:55.862Z,-0.90
2019-02-25T03:41:26.495Z,-0.80
2019-02-25T03:43:57.105Z,-1.00
2019-02-25T03:46:27.744Z,-0.90
2019-02-25T03:48:58.427Z,-0.90
2019-02-25T03:51:29.062Z,-1.00
2019-02-25T03:53:59.674Z,-1.00
2019-02-25T03:56:30.246Z,-0.90
2019-02-25T03:59:00.848Z,-0.90
2019-02-25T04:01:31.485Z,-0.80
2019-02-25T04:04:02.090Z,-0.90
2019-02-25T04:06:32.812Z,-1.00
2019-02-25T04:09:03.545Z,-1.10
2019-02-25T04:11:35.556Z,-1.00
2019-02-25T04:14:06.093Z,-1.10
2019-02-25T04:16:36.830Z,-1.20
2019-02-25T04:19:07.438Z,-1.10
2019-02-25T04:21:38.021Z,-1.20
2019-02-25T04:24:08.615Z,-1.20
2019-02-25T04:26:39.173Z,-1.20
2019-02-25T04:29:09.697Z,-1.10
2019-02-25T04:31:40.320Z,-1.10
2019-02-25T04:34:10.855Z,-1.10
2019-02-25T04:36:41.415Z,-1.10
2019-02-25T04:39:11.970Z,-1.20
2019-02-25T04:41:42.606Z,-1.20
2019-02-25T04:44:13.218Z,-1.20
2019-02-25T04:46:43.779Z,-1.20
2019-02-25T04:49:14.409Z,-1.30
2019-02-25T04:51:45.037Z,-1.20
2019-02-25T04:54:15.718Z,-1.20
2019-02-25T04:56:46.293Z,-1.20
2019-02-25T04:59:16.914Z,-1.30
2019-02-25T05:01:47.562Z,-1.20
2019-02-25T05:04:18.161Z,-1.30
2019-02-25T05:06:48.722Z,-1.20
2019-02-25T05:09:19.249Z,-1.30
2019-02-25T05:14:51.264Z,-1.30
2019-02-25T05:17:26.863Z,-1.50
2019-02-25T05:20:01.598Z,-1.40
2019-02-25T05:22:40.243Z,-1.50
2019-02-25T05:25:32.221Z,-1.50
2019-02-25T05:33:43.455Z,-1.40
2019-02-25T05:36:14.081Z,-1.40
2019-02-25T05:38:44.681Z,-1.40
2019-02-25T05:41:15.306Z,-1.50
2019-02-25T05:43:45.943Z,-1.50
2019-02-25T05:46:16.551Z,-1.50
2019-02-25T05:48:47.178Z,-1.40
2019-02-25T05:51:17.824Z,-1.50
2019-02-25T05:53:48.433Z,-1.50
2019-02-25T05:56:18.983Z,-1.60
2019-02-25T05:58:49.625Z,-1.50
2019-02-25T06:01:20.266Z,-1.40
2019-02-25T06:03:50.966Z,-1.40
2019-02-25T06:06:22.705Z,-1.50
2019-02-25T06:08:53.275Z,-1.40
2019-02-25T06:11:23.945Z,-1.50
2019-02-25T06:13:54.533Z,-1.50
2019-02-25T06:16:25.081Z,-1.50
2019-02-25T06:18:55.705Z,-1.40
2019-02-25T06:21:26.336Z,-1.40
2019-02-25T06:23:56.977Z,-1.50
2019-02-25T06:26:27.602Z,-1.50
2019-02-25T06:28:58.243Z,-1.50
2019-02-25T06:31:28.936Z,-1.40
2019-02-25T06:33:59.570Z,-1.40
2019-02-25T06:36:30.117Z,-1.40
2019-02-25T06:39:00.854Z,-1.40
2019-02-25T06:41:32.871Z,-1.40
2019-02-25T06:44:03.517Z,-1.30
2019-02-25T06:46:34.143Z,-1.20
2019-02-25T06:49:06.385Z,-1.30
2019-02-25T06:51:37.001Z,-1.20
2019-02-25T06:54:07.569Z,-1.20
2019-02-25T06:56:38.113Z,-1.10
2019-02-25T06:59:08.753Z,-1.20
2019-02-25T07:01:39.381Z,-1.10
2019-02-25T07:04:29.009Z,-1.00
2019-02-25T07:07:08.882Z,-1.00
2019-02-25T07:09:59.601Z,-0.90
2019-02-25T07:12:47.317Z,-0.80
2019-02-25T07:15:43.070Z,-0.60
2019-02-25T07:18:45.174Z,-0.50
2019-02-25T07:21:29.985Z,-0.40
2019-02-25T07:24:07.172Z,-0.30
2019-02-25T07:27:03.934Z,-0.30
2019-02-25T07:29:47.033Z,-0.10
2019-02-25T07:32:30.043Z,0.00
2019-02-25T07:35:07.647Z,0.20
2019-02-25T07:37:58.041Z,0.20
2019-02-25T07:40:39.941Z,0.40
2019-02-25T07:43:44.669Z,0.70
2019-02-25T07:46:30.489Z,0.80
2019-02-25T07:49:14.608Z,0.90
2019-02-25T07:52:08.374Z,1.40
2019-02-25T07:55:16.130Z,1.50
2019-02-25T07:58:04.522Z,1.90
2019-02-25T08:00:54.115Z,2.20
2019-02-25T08:03:35.787Z,2.50
2019-02-25T08:06:21.267Z,2.60
2019-02-25T08:09:29.147Z,3.30
2019-02-25T08:12:17.841Z,3.70
2019-02-25T08:15:08.889Z,4.50
2019-02-25T08:18:02.485Z,4.90
2019-02-25T08:21:04.139Z,5.00
2019-02-25T08:23:42.441Z,5.30
2019-02-25T08:26:20.777Z,5.80
2019-02-25T08:29:16.475Z,6.70
2019-02-25T08:32:06.157Z,7.20
2019-02-25T08:35:11.222Z,7.00
2019-02-25T08:38:20.132Z,7.80
2019-02-25T08:41:02.340Z,7.70
2019-02-25T08:43:48.005Z,8.90
2019-02-25T08:46:41.999Z,9.10
2019-02-25T08:49:34.673Z,8.80
2019-02-25T08:52:05.309Z,9.50
2019-02-25T08:54:35.854Z,9.70
2019-02-25T08:57:06.626Z,10.40
2019-02-25T08:59:37.365Z,10.70
2019-02-25T09:02:09.045Z,11.60
2019-02-25T09:04:39.634Z,11.20
2019-02-25T09:07:10.338Z,11.20
2019-02-25T09:09:40.937Z,11.00
2019-02-25T09:12:11.594Z,11.00
2019-02-25T09:14:42.207Z,11.60
2019-02-25T09:17:12.923Z,11.90
2019-02-25T09:19:43.546Z,12.10
2019-02-25T09:22:14.341Z,12.20
2019-02-25T09:24:45.026Z,12.20
2019-02-25T09:27:15.738Z,11.50
2019-02-25T09:29:47.357Z,11.30
2019-02-25T09:32:19.062Z,10.90
2019-02-25T09:34:49.965Z,10.60
2019-02-25T09:37:20.522Z,10.50
2019-02-25T09:39:52.047Z,10.50
2019-02-25T09:42:22.779Z,10.60
2019-02-25T09:44:53.410Z,10.70
2019-02-25T09:47:24.041Z,10.80
2019-02-25T09:49:54.577Z,10.70
2019-02-25T09:52:25.199Z,10.80
2019-02-25T09:54:55.737Z,10.90
2019-02-25T09:57:26.276Z,11.20
2019-02-25T09:59:56.881Z,11.50
2019-02-25T10:02:27.515Z,11.60
2019-02-25T10:04:58.134Z,12.40
2019-02-25T10:07:28.800Z,13.10
2019-02-25T10:09:59.329Z,13.00
2019-02-25T10:12:29.915Z,13.30
2019-02-25T10:15:00.546Z,13.80
2019-02-25T10:17:31.293Z,13.90
2019-02-25T10:20:01.868Z,14.60
2019-02-25T10:22:33.829Z,14.60
2019-02-25T10:25:04.557Z,14.70
2019-02-25T10:27:35.250Z,14.80
2019-02-25T10:30:07.141Z,15.80
2019-02-25T10:32:37.821Z,15.90
2019-02-25T10:35:10.350Z,16.20
2019-02-25T10:37:41.444Z,16.00
2019-02-25T10:40:15.211Z,15.80
2019-02-25T10:42:45.772Z,16.20
2019-02-25T10:45:16.845Z,15.30
2019-02-25T10:47:49.503Z,15.60
2019-02-25T10:50:20.275Z,15.80
2019-02-25T10:52:50.888Z,15.90
2019-02-25T10:55:28.104Z,16.30
2019-02-25T10:57:59.791Z,16.60
2019-02-25T11:00:31.168Z,17.10
2019-02-25T11:05:31.716Z,17.90
2019-02-25T11:08:05.323Z,17.70
2019-02-25T11:10:38.742Z,17.80
2019-02-25T11:13:09.382Z,19.00
2019-02-25T11:15:41.812Z,18.80
2019-02-25T11:18:12.418Z,18.80
2019-02-25T11:20:43.146Z,18.00
2019-02-25T11:23:15.387Z,18.60
2019-02-25T11:25:46.093Z,18.60
2019-02-25T11:28:25.534Z,18.60
2019-02-25T11:30:49.853Z,18.40
2019-02-25T11:33:22.726Z,18.20
2019-02-25T11:35:53.622Z,18.20
2019-02-25T11:38:26.009Z,19.10
2019-02-25T11:40:56.637Z,19.90
2019-02-25T11:43:27.339Z,19.00
2019-02-25T11:45:58.158Z,18.90
2019-02-25T11:48:28.779Z,18.80
2019-02-25T11:50:59.409Z,19.70
2019-02-25T11:53:30.025Z,19.70
2019-02-25T11:56:00.775Z,19.80
2019-02-25T11:58:31.397Z,19.70
2019-02-25T12:01:02.034Z,19.80
2019-02-25T12:03:33.825Z,20.20
2019-02-25T12:06:04.390Z,20.20
2019-02-25T12:08:35.006Z,20.30
2019-02-25T12:11:05.657Z,20.00
2019-02-25T12:13:36.249Z,19.70
2019-02-25T12:16:06.965Z,20.70
2019-02-25T12:18:37.520Z,20.50
2019-02-25T12:21:08.182Z,20.20
2019-02-25T12:23:39.074Z,19.90
2019-02-25T12:26:09.719Z,20.80
2019-02-25T12:28:40.422Z,20.30
2019-02-25T12:31:12.511Z,20.20
2019-02-25T12:33:43.220Z,20.30
2019-02-25T12:36:13.865Z,20.00
2019-02-25T12:38:44.505Z,20.50
2019-02-25T12:41:15.205Z,19.60
2019-02-25T12:43:45.867Z,21.00
2019-02-25T12:46:16.491Z,20.50
2019-02-25T12:48:47.113Z,20.00
2019-02-25T12:51:17.751Z,19.50
2019-02-25T12:53:48.374Z,18.80
2019-02-25T12:56:19.096Z,19.30
2019-02-25T12:58:49.780Z,19.60
2019-02-25T13:01:20.500Z,19.50
2019-02-25T13:03:51.125Z,19.40
2019-02-25T13:06:21.766Z,19.70
2019-02-25T13:08:52.456Z,19.70
2019-02-25T13:11:23.169Z,19.50
2019-02-25T13:13:53.828Z,20.10
2019-02-25T13:16:24.493Z,20.00
2019-02-25T13:18:55.201Z,18.70
2019-02-25T13:21:25.925Z,19.20
2019-02-25T13:23:56.969Z,19.80
2019-02-25T13:26:29.298Z,19.80
2019-02-25T13:29:01.217Z,19.80
2019-02-25T13:31:32.006Z,19.70
2019-02-25T13:34:02.633Z,19.40
2019-02-25T13:36:33.278Z,19.90
2019-02-25T13:39:04.969Z,19.80
2019-02-25T13:41:35.777Z,20.00
2019-02-25T13:44:06.513Z,19.60
2019-02-25T13:46:37.221Z,20.30
2019-02-25T13:49:07.929Z,21.60
2019-02-25T13:51:38.646Z,21.60
2019-02-25T13:54:09.367Z,20.40
2019-02-25T13:56:40.098Z,21.30
2019-02-25T13:59:11.027Z,19.80
2019-02-25T14:01:41.668Z,19.90
2019-02-25T14:04:12.304Z,19.70
2019-02-25T14:06:43.041Z,19.50
2019-02-25T14:09:14.022Z,19.10
2019-02-25T14:11:46.342Z,18.90
2019-02-25T14:14:17.378Z,18.70
2019-02-25T14:16:48.138Z,18.80
2019-02-25T14:19:18.842Z,18.80
2019-02-25T14:21:49.583Z,18.50
2019-02-25T14:24:20.911Z,18.80
2019-02-25T14:26:51.757Z,18.60
2019-02-25T14:29:26.203Z,18.40
2019-02-25T14:31:54.731Z,18.50
2019-02-25T14:34:25.351Z,18.70
2019-02-25T14:36:57.187Z,18.40
2019-02-25T14:39:30.281Z,18.30
2019-02-25T14:42:01.713Z,18.30
2019-02-25T14:44:35.402Z,18.40
2019-02-25T14:47:19.284Z,18.20
2019-02-25T14:49:39.847Z,18.10
2019-02-25T14:52:10.261Z,18.00
2019-02-25T14:54:40.879Z,17.90
2019-02-25T14:57:11.510Z,17.80
2019-02-25T14:59:42.145Z,17.80
2019-02-25T15:02:12.792Z,17.70
2019-02-25T15:04:43.936Z,17.70
2019-02-25T15:07:15.235Z,17.60
2019-02-25T15:09:47.261Z,17.60
2019-02-25T15:12:17.910Z,17.60
2019-02-25T15:14:48.524Z,17.50
2019-02-25T15:17:19.239Z,17.40
2019-02-25T15:19:50.832Z,17.30
2019-02-25T15:22:21.461Z,17.30
2019-02-25T15:24:53.040Z,17.30
2019-02-25T15:27:24.352Z,17.10
2019-02-25T15:29:55.044Z,17.10
2019-02-25T15:32:25.694Z,17.00
2019-02-25T15:34:57.265Z,16.90
2019-02-25T15:37:28.009Z,16.90
2019-02-25T15:39:58.805Z,16.90
2019-02-25T15:42:30.078Z,16.90
2019-02-25T15:45:01.867Z,16.80
2019-02-25T15:47:32.931Z,16.70
2019-02-25T15:50:04.381Z,16.80
2019-02-25T15:52:39.970Z,16.70
2019-02-25T15:55:13.085Z,16.70
2019-02-25T15:57:42.817Z,16.80
2019-02-25T16:00:16.538Z,16.70
2019-02-25T16:02:47.881Z,16.70
2019-02-25T16:05:18.505Z,16.70
2019-02-25T16:07:50.318Z,16.70
2019-02-25T16:10:22.742Z,16.60
2019-02-25T16:12:56.193Z,16.60
2019-02-25T16:15:26.977Z,16.50
2019-02-25T16:17:57.597Z,16.40
2019-02-25T16:20:32.222Z,16.30
2019-02-25T16:23:05.058Z,16.30
2019-02-25T16:25:34.885Z,16.20
2019-02-25T16:28:05.976Z,16.10
2019-02-25T16:30:37.912Z,16.00
2019-02-25T16:33:12.680Z,16.00
2019-02-25T16:35:43.541Z,15.80
2019-02-25T16:38:14.771Z,15.70
2019-02-25T16:40:45.487Z,15.60
2019-02-25T16:43:16.133Z,15.30
2019-02-25T16:45:47.087Z,15.20
2019-02-25T16:48:19.266Z,15.00
2019-02-25T16:50:50.270Z,14.70
2019-02-25T16:53:20.902Z,14.20
2019-02-25T16:55:51.760Z,14.20
2019-02-25T16:58:22.456Z,13.90
2019-02-25T17:00:56.020Z,13.70
2019-02-25T17:03:25.401Z,13.30
2019-02-25T17:05:56.368Z,13.30
2019-02-25T17:08:28.211Z,13.20
2019-02-25T17:11:00.031Z,13.00
2019-02-25T17:13:32.505Z,12.80
2019-02-25T17:16:17.859Z,12.80
2019-02-25T17:18:42.226Z,12.50
2019-02-25T17:21:12.873Z,12.30
2019-02-25T17:23:43.527Z,12.20
2019-02-25T17:26:14.942Z,12.00
2019-02-25T17:28:47.949Z,11.90
2019-02-25T17:45:19.393Z,10.90
2019-02-25T17:47:58.192Z,10.80
2019-02-25T17:50:23.634Z,10.80
2019-02-25T17:52:54.437Z,10.60
2019-02-25T17:55:27.059Z,10.50
2019-02-25T17:57:58.704Z,10.50
2019-02-25T18:00:35.779Z,10.40
2019-02-25T18:03:07.349Z,10.20
2019-02-25T18:05:40.119Z,10.10
2019-02-25T18:08:13.138Z,9.90
2019-02-25T18:10:45.195Z,9.90
2019-02-25T18:13:15.915Z,9.90
2019-02-25T18:15:47.748Z,9.70
2019-02-25T18:18:20.236Z,9.50
2019-02-25T18:20:53.190Z,9.30
2019-02-25T18:23:23.707Z,9.10
2019-02-25T18:25:58.093Z,9.00
2019-02-25T18:28:26.683Z,8.90
2019-02-25T18:30:59.647Z,8.80
2019-02-25T18:36:00.656Z,8.60
2019-02-25T18:38:32.229Z,8.50
2019-02-25T18:41:04.238Z,8.50
2019-02-25T18:43:35.177Z,8.40
2019-02-25T18:46:07.258Z,8.40
2019-02-25T18:48:40.720Z,8.30
2019-02-25T18:51:11.913Z,8.30
2019-02-25T18:53:44.635Z,8.20
2019-02-25T18:56:16.766Z,8.10
2019-02-25T18:58:47.290Z,8.10
2019-02-25T19:01:17.998Z,8.00
2019-02-25T19:03:50.460Z,7.80
2019-02-25T19:06:23.552Z,7.80
2019-02-25T19:08:55.614Z,7.70
2019-02-25T19:11:28.114Z,7.70
2019-02-25T19:14:01.825Z,7.60
2019-02-25T19:16:32.468Z,7.50
2019-02-25T19:19:03.983Z,7.50
2019-02-25T19:21:35.406Z,7.40
2019-02-25T19:24:07.713Z,7.30
2019-02-25T19:26:40.365Z,7.20
2019-02-25T19:29:12.517Z,7.10
2019-02-25T19:31:43.205Z,7.00
2019-02-25T19:34:16.044Z,6.90
2019-02-25T19:36:46.922Z,6.90
2019-02-25T19:39:19.793Z,6.80
2019-02-25T19:41:51.377Z,6.80
2019-02-25T19:44:22.185Z,6.90
2019-02-25T19:46:53.849Z,6.80
2019-02-25T19:49:25.198Z,6.70
2019-02-25T19:51:55.842Z,6.50
2019-02-25T19:54:26.463Z,6.50
2019-02-25T19:56:57.975Z,6.50
2019-02-25T19:59:30.862Z,6.70
2019-02-25T20:02:01.182Z,6.90
2019-02-25T20:04:35.479Z,7.00
2019-02-25T20:07:04.089Z,6.80
2019-02-25T20:09:34.709Z,8.10
2019-02-25T20:12:05.472Z,7.50
2019-02-25T20:14:36.166Z,6.60
2019-02-25T20:17:07.013Z,6.40
2019-02-25T20:19:39.149Z,6.30
2019-02-25T20:22:10.446Z,6.30
2019-02-25T20:24:44.566Z,6.20
2019-02-25T20:27:14.633Z,6.10
2019-02-25T20:29:45.309Z,5.90
2019-02-25T20:32:16.447Z,5.80
2019-02-25T20:34:50.105Z,5.80
2019-02-25T20:37:22.744Z,5.80
2019-02-25T20:39:52.898Z,5.90
2019-02-25T20:42:24.436Z,5.70
2019-02-25T20:44:57.564Z,5.70
2019-02-25T20:47:28.655Z,5.60
2019-02-25T20:50:00.601Z,5.50
2019-02-25T20:52:34.063Z,5.50
2019-02-25T20:55:05.856Z,5.50
2019-02-25T20:57:38.099Z,5.40
2019-02-25T21:00:13.345Z,5.40
2019-02-25T21:02:44.837Z,5.30
2019-02-25T21:05:16.975Z,5.20
2019-02-25T21:07:48.276Z,5.20
2019-02-25T21:10:20.302Z,5.20
2019-02-25T21:12:53.008Z,5.20
2019-02-25T21:15:23.187Z,5.10
2019-02-25T21:17:55.038Z,5.10
2019-02-25T21:20:28.760Z,5.10
2019-02-25T21:23:02.847Z,5.00
2019-02-25T21:25:31.421Z,4.90
2019-02-25T21:28:04.920Z,4.90
2019-02-25T21:30:39.101Z,5.00
2019-02-25T21:33:07.802Z,4.90
2019-02-25T21:35:39.775Z,4.70
2019-02-25T21:38:10.771Z,4.50
2019-02-25T21:40:41.487Z,4.40
2019-02-25T21:43:14.405Z,4.40
2019-02-25T21:45:49.895Z,4.30
2019-02-25T21:48:23.096Z,4.20
2019-02-25T21:50:52.349Z,4.20
2019-02-25T21:53:22.893Z,4.10
2019-02-25T21:55:55.503Z,4.10
2019-02-25T21:58:27.749Z,4.10
2019-02-25T22:00:58.441Z,4.00
2019-02-25T22:03:29.165Z,4.00
2019-02-25T22:06:00.886Z,3.90
2019-02-25T22:08:34.105Z,3.90
2019-02-25T22:11:12.587Z,4.00
2019-02-25T22:13:36.690Z,4.00
2019-02-25T22:16:08.027Z,4.00
2019-02-25T22:18:38.713Z,4.00
2019-02-25T22:21:11.376Z,3.90
2019-02-25T22:23:41.582Z,3.90
2019-02-25T22:26:12.189Z,3.90
2019-02-25T22:28:42.826Z,3.80
2019-02-25T22:31:15.654Z,3.80
2019-02-25T22:33:45.767Z,3.70
2019-02-25T22:36:16.381Z,3.60
2019-02-25T22:38:47.188Z,3.60
2019-02-25T22:41:18.876Z,3.60
2019-02-25T22:43:50.265Z,3.60
2019-02-25T22:46:20.894Z,3.50
2019-02-25T22:48:52.490Z,3.50
2019-02-25T22:51:25.971Z,3.40
2019-02-25T22:53:55.360Z,3.50
2019-02-25T22:56:28.097Z,3.50
2019-02-25T22:59:00.011Z,3.40
2019-02-25T23:01:31.493Z,3.50
2019-02-25T23:04:02.073Z,3.40
2019-02-25T23:06:32.654Z,3.30
2019-02-25T23:09:03.630Z,3.20
2019-02-25T23:11:35.904Z,3.10
2019-02-25T23:14:07.739Z,3.10
2019-02-25T23:16:39.389Z,3.20
2019-02-25T23:19:12.013Z,3.20
2019-02-25T23:21:43.250Z,3.10
2019-02-25T23:24:13.889Z,3.10
2019-02-25T23:26:44.558Z,3.00
2019-02-25T23:29:15.511Z,3.00
2019-02-25T23:31:47.352Z,2.90
2019-02-25T23:34:20.326Z,2.90
2019-02-25T23:36:51.666Z,2.90
2019-02-25T23:39:22.454Z,2.80
2019-02-25T23:41:53.077Z,2.80
2019-02-25T23:44:24.635Z,2.80
2019-02-25T23:46:59.374Z,2.70
2019-02-25T23:49:27.749Z,2.70
2019-02-25T23:51:58.357Z,2.60
2019-02-25T23:54:28.989Z,2.50
2019-02-25T23:57:00.203Z,2.60
2019-02-25T23:59:31.854Z,2.50
